Roseto, Pennsylvania
Current Conditions -  °F | °C
As of 12:16 AM on Thursday 23 Oct 2014 (Local Time) from KABE Reporting Station
Light Rain Light Rain  
Wind Chill: 52°   Ceiling: 3400
Heat Index: 52°   Visibility: 10mi
Dew Point: 45°   Wind: 16mph
Humidity: 76%   Direction: 340°NNW
Pressure: 29.83"   Gusts: 26mph
Location:  40.8463°N, 75.1731°W
Report Text: KABE 230416Z 34014G23KT 10SM -RA SCT028 BKN034 OVC050 11/07 A2983 RMK AO2 RAB0354 P0000
Loading
Personal Weather Stations






























Interactive Weather Map
Tropical Storm Tracking
New forecast layout! Learn more

10-Day Weather Forecast

Advertisements
Track Severe Weather on mobile